createdAt,value
2018-05-23T00:00:20.259Z,18.00
2018-05-23T00:02:47.898Z,18.10
2018-05-23T00:05:15.531Z,18.10
2018-05-23T00:07:43.179Z,18.10
2018-05-23T00:10:11.562Z,18.20
2018-05-23T00:12:39.946Z,18.20
2018-05-23T00:15:07.544Z,18.10
2018-05-23T00:17:35.170Z,18.20
2018-05-23T00:20:03.574Z,18.30
2018-05-23T00:22:31.154Z,18.20
2018-05-23T00:24:58.768Z,18.30
2018-05-23T00:27:27.151Z,18.20
2018-05-23T00:29:54.755Z,18.20
2018-05-23T00:32:22.414Z,18.10
2018-05-23T00:34:50.028Z,18.10
2018-05-23T00:37:17.677Z,18.20
2018-05-23T00:39:45.261Z,18.10
2018-05-23T00:42:12.889Z,18.20
2018-05-23T00:44:40.475Z,18.10
2018-05-23T00:47:08.096Z,18.20
2018-05-23T00:49:35.689Z,18.10
2018-05-23T00:52:04.123Z,17.90
2018-05-23T00:54:31.726Z,17.90
2018-05-23T00:57:00.133Z,17.90
2018-05-23T00:59:27.776Z,17.80
2018-05-23T01:01:55.413Z,17.80
2018-05-23T01:04:23.003Z,17.70
2018-05-23T01:06:50.678Z,17.60
2018-05-23T01:09:18.274Z,17.70
2018-05-23T01:11:47.884Z,17.70
2018-05-23T01:14:17.867Z,17.70
2018-05-23T01:16:47.784Z,17.80
2018-05-23T01:19:17.453Z,17.80
2018-05-23T01:21:47.416Z,17.90
2018-05-23T01:24:17.941Z,17.90
2018-05-23T01:26:48.823Z,17.90
2018-05-23T01:29:18.401Z,17.90
2018-05-23T01:31:48.315Z,18.00
2018-05-23T01:34:18.143Z,17.90
2018-05-23T01:36:47.717Z,17.90
2018-05-23T01:39:17.851Z,18.00
2018-05-23T01:41:47.721Z,17.90
2018-05-23T01:44:18.270Z,18.00
2018-05-23T01:46:49.137Z,18.00
2018-05-23T01:49:25.395Z,18.10
2018-05-23T01:51:56.152Z,18.00
2018-05-23T01:54:27.495Z,18.00
2018-05-23T01:56:57.150Z,18.00
2018-05-23T01:59:26.954Z,18.00
2018-05-23T02:01:56.644Z,17.90
2018-05-23T02:04:24.244Z,17.90
2018-05-23T02:06:52.639Z,17.90
2018-05-23T02:09:20.252Z,17.80
2018-05-23T02:11:47.897Z,17.90
2018-05-23T02:14:15.481Z,17.90
2018-05-23T02:16:43.120Z,17.90
2018-05-23T02:19:10.753Z,17.90
2018-05-23T02:21:38.384Z,17.80
2018-05-23T02:24:06.798Z,17.70
2018-05-23T02:26:34.419Z,17.70
2018-05-23T02:29:02.081Z,17.70
2018-05-23T02:31:29.692Z,17.70
2018-05-23T02:33:57.334Z,17.40
2018-05-23T02:36:24.917Z,17.40
2018-05-23T02:38:52.570Z,17.30
2018-05-23T02:41:20.194Z,17.30
2018-05-23T02:43:47.836Z,17.40
2018-05-23T02:46:20.472Z,17.40
2018-05-23T02:48:48.069Z,17.40
2018-05-23T02:51:15.706Z,17.40
2018-05-23T02:53:43.305Z,17.40
2018-05-23T02:56:10.933Z,17.30
2018-05-23T02:58:38.585Z,17.30
2018-05-23T03:01:06.224Z,17.30
2018-05-23T03:03:34.598Z,17.30
2018-05-23T03:06:03.053Z,17.30
2018-05-23T03:08:30.672Z,17.30
2018-05-23T03:10:58.301Z,17.30
2018-05-23T03:13:26.659Z,17.20
2018-05-23T03:15:54.297Z,17.20
2018-05-23T03:18:21.902Z,17.20
2018-05-23T03:20:49.497Z,17.30
2018-05-23T03:23:17.120Z,17.30
2018-05-23T03:25:44.716Z,17.30
2018-05-23T03:28:12.317Z,17.20
2018-05-23T03:30:39.967Z,17.20
2018-05-23T03:33:07.560Z,17.20
2018-05-23T03:35:35.151Z,17.20
2018-05-23T03:38:02.781Z,17.20
2018-05-23T03:40:30.409Z,17.10
2018-05-23T03:42:57.998Z,17.20
2018-05-23T03:45:25.618Z,17.20
2018-05-23T03:47:53.201Z,17.20
2018-05-23T03:50:20.840Z,17.20
2018-05-23T03:52:48.438Z,17.30
2018-05-23T03:55:16.090Z,17.30
2018-05-23T03:57:43.721Z,17.30
2018-05-23T04:00:23.437Z,17.30
2018-05-23T04:03:03.585Z,17.40
2018-05-23T04:05:42.957Z,17.40
2018-05-23T04:08:10.566Z,17.40
2018-05-23T04:10:38.199Z,17.30
2018-05-23T04:13:05.809Z,16.40
2018-05-23T04:15:34.223Z,17.40
2018-05-23T04:18:01.861Z,17.40
2018-05-23T04:20:30.272Z,17.40
2018-05-23T04:22:57.873Z,17.40
2018-05-23T04:25:25.521Z,17.40
2018-05-23T04:27:53.117Z,17.40
2018-05-23T04:30:21.513Z,17.30
2018-05-23T04:32:49.138Z,17.30
2018-05-23T04:35:16.723Z,17.20
2018-05-23T04:37:45.134Z,17.20
2018-05-23T04:40:12.761Z,17.20
2018-05-23T04:42:41.156Z,17.30
2018-05-23T04:45:08.785Z,17.30
2018-05-23T04:47:36.427Z,17.20
2018-05-23T04:50:04.056Z,17.30
2018-05-23T04:52:31.730Z,17.30
2018-05-23T04:54:59.357Z,17.30
2018-05-23T04:57:27.760Z,17.40
2018-05-23T04:59:55.406Z,17.40
2018-05-23T05:02:23.018Z,17.20
2018-05-23T05:04:50.667Z,16.90
2018-05-23T05:07:18.266Z,16.80
2018-05-23T05:09:45.897Z,16.70
2018-05-23T05:12:13.509Z,16.70
2018-05-23T05:14:41.854Z,17.00
2018-05-23T05:17:09.497Z,17.10
2018-05-23T05:19:37.099Z,17.20
2018-05-23T05:24:39.528Z,17.40
2018-05-23T05:27:07.243Z,17.50
2018-05-23T05:29:34.846Z,17.60
2018-05-23T05:32:02.481Z,17.60
2018-05-23T05:34:30.477Z,17.70
2018-05-23T05:36:58.136Z,17.70
2018-05-23T05:39:26.590Z,17.70
2018-05-23T05:41:54.215Z,17.70
2018-05-23T05:44:21.816Z,17.60
2018-05-23T05:46:49.488Z,17.50
2018-05-23T05:49:17.903Z,17.50
2018-05-23T05:51:45.486Z,17.50
2018-05-23T05:54:13.110Z,17.50
2018-05-23T05:56:40.743Z,17.60
2018-05-23T05:59:08.336Z,17.60
2018-05-23T06:01:37.339Z,17.70
2018-05-23T06:04:05.665Z,17.70
2018-05-23T06:06:33.368Z,17.70
2018-05-23T06:09:01.005Z,17.60
2018-05-23T06:11:28.598Z,17.70
2018-05-23T06:13:56.231Z,17.80
2018-05-23T06:16:23.859Z,17.90
2018-05-23T06:18:54.520Z,17.70
2018-05-23T06:21:22.896Z,17.80
2018-05-23T06:23:50.548Z,17.80
2018-05-23T06:26:18.170Z,17.80
2018-05-23T06:28:45.759Z,17.80
2018-05-23T06:33:59.189Z,17.90
2018-05-23T06:36:27.090Z,18.10
2018-05-23T06:38:57.800Z,18.20
2018-05-23T06:41:25.426Z,18.10
2018-05-23T06:43:53.074Z,18.20
2018-05-23T06:46:34.223Z,18.30
2018-05-23T06:49:15.482Z,18.30
2018-05-23T06:51:44.373Z,18.40
2018-05-23T06:54:12.359Z,18.40
2018-05-23T06:56:51.724Z,18.40
2018-05-23T06:59:20.810Z,18.40
2018-05-23T07:01:49.402Z,18.30
2018-05-23T07:04:17.075Z,18.20
2018-05-23T07:06:45.469Z,18.20
2018-05-23T07:09:14.077Z,18.30
2018-05-23T07:11:41.719Z,18.30
2018-05-23T07:14:09.302Z,18.20
2018-05-23T07:16:36.984Z,18.30
2018-05-23T07:19:04.640Z,18.40
2018-05-23T07:21:32.289Z,18.50
2018-05-23T07:23:59.962Z,18.40
2018-05-23T07:26:28.277Z,18.50
2018-05-23T07:28:55.907Z,18.50
2018-05-23T07:31:23.777Z,18.60
2018-05-23T07:33:51.699Z,18.70
2018-05-23T07:36:19.390Z,18.60
2018-05-23T07:38:47.050Z,18.70
2018-05-23T07:41:14.709Z,18.70
2018-05-23T07:43:42.344Z,18.60
2018-05-23T07:46:10.712Z,18.50
2018-05-23T07:48:38.353Z,18.50
2018-05-23T07:51:06.887Z,18.50
2018-05-23T07:53:34.491Z,18.50
2018-05-23T07:56:02.233Z,18.40
2018-05-23T07:58:31.253Z,18.40
2018-05-23T08:00:59.019Z,18.50
2018-05-23T08:03:27.449Z,18.40
2018-05-23T08:05:55.070Z,18.40
2018-05-23T08:08:22.734Z,18.20
2018-05-23T08:10:50.309Z,18.20
2018-05-23T08:13:18.706Z,18.30
2018-05-23T08:15:46.395Z,18.30
2018-05-23T08:18:14.796Z,18.60
2018-05-23T08:20:42.443Z,18.60
2018-05-23T08:23:10.097Z,18.70
2018-05-23T08:25:37.711Z,18.80
2018-05-23T08:28:05.346Z,18.90
2018-05-23T08:30:32.958Z,18.90
2018-05-23T08:33:01.352Z,18.70
2018-05-23T08:35:29.030Z,18.70
2018-05-23T08:37:56.619Z,18.60
2018-05-23T08:40:24.201Z,18.50
2018-05-23T08:42:51.858Z,18.50
2018-05-23T08:45:19.497Z,18.60
2018-05-23T08:47:47.173Z,18.60
2018-05-23T08:50:15.772Z,18.70
2018-05-23T08:52:43.437Z,18.70
2018-05-23T08:55:11.017Z,18.80
2018-05-23T08:57:38.675Z,18.80
2018-05-23T09:00:06.325Z,18.80
2018-05-23T09:02:34.000Z,18.70
2018-05-23T09:05:02.505Z,18.30
2018-05-23T09:07:30.117Z,18.40
2018-05-23T09:09:57.752Z,18.30
2018-05-23T09:12:25.454Z,18.30
2018-05-23T09:14:53.738Z,18.30
2018-05-23T09:17:21.434Z,18.30
2018-05-23T09:19:49.082Z,18.30
2018-05-23T09:22:17.490Z,18.40
2018-05-23T09:24:45.866Z,18.40
2018-05-23T09:27:13.494Z,18.40
2018-05-23T09:29:41.933Z,18.30
2018-05-23T09:32:09.688Z,18.30
2018-05-23T09:34:37.328Z,18.40
2018-05-23T09:37:04.967Z,18.40
2018-05-23T09:39:33.388Z,18.50
2018-05-23T09:42:01.053Z,18.50
2018-05-23T09:44:28.644Z,18.60
2018-05-23T09:46:56.238Z,18.80
2018-05-23T09:49:23.896Z,18.90
2018-05-23T09:51:51.511Z,18.90
2018-05-23T09:54:19.149Z,18.90
2018-05-23T09:56:46.750Z,18.80
2018-05-23T09:59:14.333Z,18.80
2018-05-23T10:01:42.054Z,18.80
2018-05-23T10:04:09.691Z,18.90
2018-05-23T10:06:37.399Z,19.00
2018-05-23T10:09:06.021Z,19.00
2018-05-23T10:11:33.624Z,19.10
2018-05-23T10:14:01.293Z,19.20
2018-05-23T10:16:28.901Z,19.30
2018-05-23T10:18:56.527Z,19.30
2018-05-23T10:21:24.275Z,19.30
2018-05-23T10:23:51.974Z,19.10
2018-05-23T10:26:19.615Z,19.00
2018-05-23T10:28:48.082Z,19.10
2018-05-23T10:31:15.713Z,19.10
2018-05-23T10:33:43.384Z,19.40
2018-05-23T10:36:10.983Z,19.60
2018-05-23T10:38:38.730Z,19.60
2018-05-23T10:41:06.393Z,19.80
2018-05-23T10:43:34.004Z,19.90
2018-05-23T10:46:02.472Z,20.20
2018-05-23T10:48:30.116Z,20.20
2018-05-23T10:50:57.746Z,20.30
2018-05-23T10:53:25.339Z,20.60
2018-05-23T10:55:52.998Z,20.90
2018-05-23T10:58:20.623Z,21.50
2018-05-23T11:00:48.286Z,22.10
2018-05-23T11:03:15.894Z,22.20
2018-05-23T11:05:43.555Z,22.00
2018-05-23T11:08:11.157Z,22.20
2018-05-23T11:10:38.813Z,22.20
2018-05-23T11:13:07.183Z,22.50
2018-05-23T11:15:34.765Z,22.50
2018-05-23T11:18:10.210Z,22.70
2018-05-23T11:20:37.891Z,23.10
2018-05-23T11:23:05.496Z,23.30
2018-05-23T11:25:33.127Z,23.40
2018-05-23T11:28:00.737Z,23.60
2018-05-23T11:30:29.169Z,23.80
2018-05-23T11:32:56.805Z,23.80
2018-05-23T11:35:24.446Z,24.00
2018-05-23T11:37:52.822Z,24.40
2018-05-23T11:40:21.250Z,24.30
2018-05-23T11:42:48.903Z,24.30
2018-05-23T11:45:16.562Z,24.10
2018-05-23T11:47:44.256Z,24.10
2018-05-23T11:50:11.885Z,24.10
2018-05-23T11:52:39.518Z,24.10
2018-05-23T11:55:07.908Z,24.20
2018-05-23T11:57:36.314Z,24.30
2018-05-23T12:00:03.917Z,24.30
2018-05-23T12:02:31.582Z,24.30
2018-05-23T12:07:38.002Z,23.90
2018-05-23T12:10:05.639Z,23.90
2018-05-23T12:12:33.262Z,24.10
2018-05-23T12:15:00.909Z,24.20
2018-05-23T12:17:28.541Z,24.30
2018-05-23T12:20:04.845Z,25.60
2018-05-23T12:22:32.477Z,24.20
2018-05-23T12:25:00.127Z,24.30
2018-05-23T12:27:29.603Z,24.20
2018-05-23T12:29:58.085Z,24.20
2018-05-23T12:32:27.278Z,24.30
2018-05-23T12:34:55.667Z,24.30
2018-05-23T12:37:24.857Z,24.60
2018-05-23T12:39:53.290Z,24.60
2018-05-23T12:42:20.910Z,24.60
2018-05-23T12:44:48.575Z,24.60
2018-05-23T12:47:17.025Z,24.60
2018-05-23T12:49:44.682Z,24.60
2018-05-23T12:52:12.314Z,24.50
2018-05-23T12:54:39.921Z,24.60
2018-05-23T12:57:07.547Z,24.70
2018-05-23T12:59:35.190Z,24.50
2018-05-23T13:02:03.582Z,24.20
2018-05-23T13:04:32.145Z,24.20
2018-05-23T13:07:00.536Z,24.10
2018-05-23T13:09:28.266Z,24.10
2018-05-23T13:11:55.874Z,24.00
2018-05-23T13:14:23.547Z,24.10
2018-05-23T13:16:51.164Z,24.20
2018-05-23T13:19:18.811Z,24.10
2018-05-23T13:21:46.406Z,23.80
2018-05-23T13:24:14.818Z,23.70
2018-05-23T13:26:42.441Z,23.70
2018-05-23T13:29:10.078Z,23.80
2018-05-23T13:31:37.739Z,24.00
2018-05-23T13:34:05.345Z,24.00
2018-05-23T13:36:33.003Z,24.10
2018-05-23T13:39:00.621Z,24.10
2018-05-23T13:41:28.275Z,24.10
2018-05-23T13:43:55.861Z,24.10
2018-05-23T13:46:23.545Z,24.10
2018-05-23T13:48:51.159Z,24.10
2018-05-23T13:51:18.755Z,24.10
2018-05-23T13:53:46.401Z,24.00
2018-05-23T13:56:14.002Z,24.00
2018-05-23T13:58:42.424Z,23.90
2018-05-23T14:01:10.006Z,23.90
2018-05-23T14:03:37.640Z,24.00
2018-05-23T14:06:05.314Z,24.10
2018-05-23T14:08:32.911Z,24.20
2018-05-23T14:11:01.325Z,24.50
2018-05-23T14:13:28.990Z,24.50
2018-05-23T14:15:56.626Z,24.70
2018-05-23T14:18:25.007Z,24.70
2018-05-23T14:20:53.394Z,24.80
2018-05-23T14:23:20.990Z,24.80
2018-05-23T14:25:48.628Z,24.80
2018-05-23T14:28:16.261Z,24.70
2018-05-23T14:30:44.645Z,24.70
2018-05-23T14:33:13.045Z,24.60
2018-05-23T14:35:40.678Z,24.60
2018-05-23T14:38:09.073Z,24.60
2018-05-23T14:40:37.492Z,24.60
2018-05-23T14:43:05.117Z,24.60
2018-05-23T14:45:33.529Z,24.80
2018-05-23T14:48:01.180Z,24.80
2018-05-23T14:50:28.779Z,24.80
2018-05-23T14:52:56.397Z,24.90
2018-05-23T14:55:24.059Z,24.80
2018-05-23T14:57:51.686Z,24.80
2018-05-23T15:00:19.318Z,24.90
2018-05-23T15:02:46.973Z,24.90
2018-05-23T15:05:14.614Z,25.00
2018-05-23T15:07:42.287Z,25.10
2018-05-23T15:10:09.879Z,25.10
2018-05-23T15:12:37.673Z,25.20
2018-05-23T15:15:05.286Z,25.30
2018-05-23T15:17:33.592Z,25.30
2018-05-23T15:20:01.341Z,25.30
2018-05-23T15:22:28.849Z,25.30
2018-05-23T15:24:57.315Z,25.40
2018-05-23T15:27:25.709Z,25.40
2018-05-23T15:29:53.301Z,25.40
2018-05-23T15:32:20.919Z,25.30
2018-05-23T15:34:49.283Z,25.30
2018-05-23T15:37:24.449Z,25.30
2018-05-23T15:39:52.478Z,25.40
2018-05-23T15:42:20.065Z,25.40
2018-05-23T15:44:47.695Z,25.40
2018-05-23T15:47:15.281Z,25.30
2018-05-23T15:49:42.942Z,25.30
2018-05-23T15:52:10.611Z,25.40
2018-05-23T15:54:39.013Z,25.40
2018-05-23T15:57:07.361Z,25.40
2018-05-23T15:59:34.968Z,25.40
2018-05-23T16:02:02.595Z,25.30
2018-05-23T16:04:30.182Z,25.30
2018-05-23T16:06:57.802Z,25.40
2018-05-23T16:09:25.441Z,25.40
2018-05-23T16:11:53.062Z,25.50
2018-05-23T16:14:20.690Z,25.60
2018-05-23T16:16:48.306Z,25.60
2018-05-23T16:19:15.899Z,25.60
2018-05-23T16:21:43.542Z,25.60
2018-05-23T16:24:11.110Z,25.60
2018-05-23T16:26:38.730Z,25.50
2018-05-23T16:29:06.358Z,25.60
2018-05-23T16:31:34.015Z,25.70
2018-05-23T16:34:01.649Z,25.90
2018-05-23T16:36:29.358Z,25.90
2018-05-23T16:38:57.020Z,26.00
2018-05-23T16:41:24.631Z,26.00
2018-05-23T16:43:52.301Z,26.00
2018-05-23T16:46:19.905Z,25.90
2018-05-23T16:48:48.319Z,25.80
2018-05-23T16:51:15.910Z,25.80
2018-05-23T16:53:43.517Z,25.70
2018-05-23T16:56:17.303Z,25.30
2018-05-23T16:58:44.969Z,25.30
2018-05-23T17:01:12.572Z,25.00
2018-05-23T17:03:40.194Z,24.80
2018-05-23T17:06:08.788Z,24.50
2018-05-23T17:08:37.187Z,24.20
2018-05-23T17:11:05.608Z,24.10
2018-05-23T17:13:33.297Z,24.10
2018-05-23T17:16:01.193Z,24.00
2018-05-23T17:18:29.024Z,23.80
2018-05-23T17:20:56.679Z,23.70
2018-05-23T17:23:24.285Z,23.60
2018-05-23T17:25:51.920Z,23.60
2018-05-23T17:28:19.503Z,23.50
2018-05-23T17:30:47.134Z,23.50
2018-05-23T17:33:14.770Z,23.40
2018-05-23T17:35:42.393Z,23.30
2018-05-23T17:38:10.008Z,23.10
2018-05-23T17:40:37.667Z,23.00
2018-05-23T17:43:05.322Z,22.80
2018-05-23T17:45:32.954Z,22.70
2018-05-23T17:48:00.602Z,22.60
2018-05-23T17:50:29.149Z,22.40
2018-05-23T17:52:56.738Z,22.40
2018-05-23T17:55:24.378Z,22.30
2018-05-23T17:57:52.032Z,22.20
2018-05-23T18:00:19.686Z,22.20
2018-05-23T18:02:47.305Z,22.20
2018-05-23T18:05:15.663Z,21.90
2018-05-23T18:07:43.353Z,21.90
2018-05-23T18:10:10.976Z,21.90
2018-05-23T18:12:38.582Z,21.80
2018-05-23T18:15:06.224Z,21.80
2018-05-23T18:17:34.578Z,21.70
2018-05-23T18:20:02.233Z,21.70
2018-05-23T18:22:29.871Z,21.70
2018-05-23T18:24:57.457Z,21.70
2018-05-23T18:27:25.962Z,21.50
2018-05-23T18:29:53.603Z,21.50
2018-05-23T18:32:21.246Z,21.40
2018-05-23T18:34:48.823Z,21.30
2018-05-23T18:37:16.444Z,21.20
2018-05-23T18:39:44.094Z,21.20
2018-05-23T18:42:11.710Z,21.20
2018-05-23T18:44:39.354Z,21.10
2018-05-23T18:47:06.943Z,21.00
2018-05-23T18:49:34.533Z,21.00
2018-05-23T18:52:02.971Z,21.00
2018-05-23T18:54:30.665Z,21.00
2018-05-23T18:56:59.038Z,20.90
2018-05-23T18:59:26.659Z,20.90
2018-05-23T19:01:54.319Z,20.90
2018-05-23T19:04:21.903Z,20.70
2018-05-23T19:06:49.543Z,20.80
2018-05-23T19:09:17.195Z,20.80
2018-05-23T19:11:44.778Z,20.70
2018-05-23T19:14:12.405Z,20.70
2018-05-23T19:16:40.044Z,20.70
2018-05-23T19:19:07.683Z,20.60
2018-05-23T19:21:36.050Z,20.60
2018-05-23T19:24:03.656Z,20.50
2018-05-23T19:26:31.326Z,20.50
2018-05-23T19:28:58.937Z,20.40
2018-05-23T19:31:26.557Z,20.30
2018-05-23T19:33:54.172Z,20.30
2018-05-23T19:36:21.806Z,20.30
2018-05-23T19:38:49.475Z,20.30
2018-05-23T19:41:17.893Z,20.20
2018-05-23T19:43:45.428Z,20.10
2018-05-23T19:46:13.077Z,20.10
2018-05-23T19:48:40.729Z,20.10
2018-05-23T19:51:08.362Z,20.10
2018-05-23T19:53:35.988Z,20.10
2018-05-23T19:56:03.641Z,20.10
2018-05-23T19:58:31.233Z,20.00
2018-05-23T20:00:58.837Z,20.00
2018-05-23T20:03:28.694Z,20.00
2018-05-23T20:05:56.338Z,20.00
2018-05-23T20:08:23.936Z,19.90
2018-05-23T20:10:51.563Z,19.90
2018-05-23T20:13:19.148Z,19.90
2018-05-23T20:15:47.537Z,19.80
2018-05-23T20:18:15.182Z,19.80
2018-05-23T20:20:42.880Z,19.90
2018-05-23T20:23:10.486Z,19.90
2018-05-23T20:25:38.102Z,20.00
2018-05-23T20:28:05.742Z,20.00
2018-05-23T20:30:33.342Z,19.90
2018-05-23T20:33:00.911Z,19.90
2018-05-23T20:35:28.631Z,19.90
2018-05-23T20:37:56.173Z,19.90
2018-05-23T20:40:23.752Z,19.90
2018-05-23T20:42:51.402Z,19.90
2018-05-23T20:45:18.990Z,19.80
2018-05-23T20:47:46.665Z,19.80
2018-05-23T20:50:15.034Z,19.80
2018-05-23T20:52:42.654Z,19.80
2018-05-23T20:55:10.225Z,19.80
2018-05-23T20:57:37.835Z,19.80
2018-05-23T21:00:05.440Z,19.80
2018-05-23T21:02:33.053Z,19.70
2018-05-23T21:05:00.851Z,19.60
2018-05-23T21:07:28.424Z,19.60
2018-05-23T21:09:56.043Z,19.60
2018-05-23T21:12:23.643Z,19.60
2018-05-23T21:14:51.264Z,19.50
2018-05-23T21:17:19.617Z,19.50
2018-05-23T21:19:47.248Z,19.50
2018-05-23T21:22:14.846Z,19.50
2018-05-23T21:24:42.463Z,19.50
2018-05-23T21:27:10.053Z,19.50
2018-05-23T21:29:37.687Z,19.50
2018-05-23T21:32:05.357Z,20.70
2018-05-23T21:34:33.036Z,19.50
2018-05-23T21:37:00.664Z,19.40
2018-05-23T21:39:28.276Z,19.40
2018-05-23T21:41:55.917Z,19.40
2018-05-23T21:44:23.552Z,19.40
2018-05-23T21:46:51.142Z,19.30
2018-05-23T21:49:19.555Z,19.30
2018-05-23T21:51:47.152Z,19.30
2018-05-23T21:54:14.789Z,19.30
2018-05-23T21:56:42.428Z,19.30
2018-05-23T21:59:10.018Z,19.30
2018-05-23T22:01:37.651Z,19.30
2018-05-23T22:04:05.325Z,19.20
2018-05-23T22:06:32.958Z,19.20
2018-05-23T22:09:01.343Z,19.20
2018-05-23T22:11:29.745Z,19.20
2018-05-23T22:13:57.379Z,19.20
2018-05-23T22:16:25.748Z,19.10
2018-05-23T22:18:54.165Z,19.10
2018-05-23T22:21:21.759Z,19.10
2018-05-23T22:23:49.362Z,19.10
2018-05-23T22:26:17.741Z,19.00
2018-05-23T22:28:46.140Z,18.90
2018-05-23T22:31:13.740Z,18.90
2018-05-23T22:33:41.336Z,18.90
2018-05-23T22:36:08.953Z,18.90
2018-05-23T22:38:36.589Z,19.00
2018-05-23T22:41:04.230Z,18.90
2018-05-23T22:43:32.594Z,18.90
2018-05-23T22:46:00.228Z,18.90
2018-05-23T22:48:27.818Z,18.80
2018-05-23T22:50:55.449Z,18.80
2018-05-23T22:53:23.082Z,18.80
2018-05-23T22:55:51.487Z,18.80
2018-05-23T22:58:19.135Z,18.70
2018-05-23T23:00:46.710Z,18.70
2018-05-23T23:03:14.286Z,18.70
2018-05-23T23:05:41.918Z,18.80
2018-05-23T23:08:09.508Z,18.80
2018-05-23T23:10:37.155Z,18.80
2018-05-23T23:13:04.768Z,18.70
2018-05-23T23:15:33.136Z,18.60
2018-05-23T23:18:00.770Z,18.60
2018-05-23T23:20:28.403Z,18.50
2018-05-23T23:22:56.011Z,18.40
2018-05-23T23:25:23.657Z,18.30
2018-05-23T23:27:51.261Z,18.10
2018-05-23T23:30:18.899Z,18.10
2018-05-23T23:32:46.487Z,18.10
2018-05-23T23:35:14.910Z,18.00
2018-05-23T23:37:42.494Z,18.00
2018-05-23T23:40:10.139Z,18.00
2018-05-23T23:42:37.726Z,18.00
2018-05-23T23:45:05.350Z,18.00
2018-05-23T23:47:32.991Z,18.00
2018-05-23T23:50:00.612Z,18.00
2018-05-23T23:52:28.269Z,18.00
2018-05-23T23:54:55.846Z,18.10
2018-05-23T23:57:23.432Z,18.00
2018-05-23T23:59:51.061Z,18.00
